Aeroporto :
LOGIN :

Iscrizione | Disclaimer

   EN    FR    IT 

 










Sommario :    VFR   VFR Marginale   IFR   IFR Intensivo   IFR Molto Intensivo
Visibilità : 
Base nubi : 
>= 8 km
>= 3000ft
5 / 8 km
1000 / 3000 ft
1500m / 5 km
500 / 1000 ft
800 / 1500m
200 / 500 ft
< 800m
< 200 ft
Simboli :   Temporali  Nebbia  Neve Forte  Precipitazioni Forti  Vento > 20 kt
SIGMETs :   Varie  Temporali  Ghiacco  Turbolenza  Onda orograficha  Ceneri Vulcaniche






- Altitudine del aeroporto : 125 ft
- Codice IATA : MGL


EDLN - Mönchengladbach

ULTIMO METAR :
  • 212250Z AUTO 35005KT 9999 // BKN074/// 04/M00 Q1026

METARs OBSOLETI :
  • 212220Z AUTO 31005KT 9999 // OVC075/// 04/M00 Q1026
  • 212150Z AUTO 33002KT 9999 // OVC065/// 03/M00 Q1026
  • 212120Z AUTO 31001KT 9999 // SCT075/// 03/00 Q1026
  • 212050Z AUTO 04001KT 9999 // NCD 03/00 Q1026
  • 212020Z AUTO 03002KT 9999 // FEW190/// 05/M01 Q1025
  • 211950Z AUTO 05003KT 9999 // NCD 07/M02 Q1025
  • 211920Z AUTO 07005KT 9999 // FEW078/// 07/M03 Q1025
  • 211850Z AUTO 06005KT 030V100 9999 // SCT063/// OVC075/// 08/M03 Q1025
  • 211820Z 04006KT 360V090 CAVOK 09/M03 Q1024

TAF TAF EDLN
Valido dal 21 a 18 ore il 22 a 03 ore UTC


211700Z 2118/2203 03010KT CAVOK
BECMG 2118/2121 01005KT
BECMG 2121/2124 VRB03KT



MetMap, La meteo Aeronautica in un colpo d'occhio ! - Copyright ORBIFLY Dicembre 2007 - Disclaimer

ORBIFLY MET'MAP TEAM :

Programmazione e sviluppo : Alexandra Zaïnal
Concezione : Baudouin d'Aumeries
Supporto tecnico e logistico : Manuel Goepfert
Aiuto : Marc-Olivier Méhu
Aiuto per la traduzione : Arnaldo La Scala




FONTI E CREDITI :

   NOAA